Terminal Aerodrome Forecast
Issued by NWS Paducah, KY

Home | Current Version | Previous Version | Text Only | Print | Product List | Glossary On
Versions: 1 2 3 4 5 6 7 8 9 10 11 12 13 14 15 16
000
FTUS43 KPAH 281725
TAFEVV
TAF
KEVV 281725Z 2818/0118 09004KT P6SM OVC080
     FM010100 09003KT 4SM -FZRASN BR BKN015 OVC035
     FM010900 00000KT 2SM -FZRA BR OVC009
     FM011400 00000KT 1 1/2SM -DZ BR OVC006=

USA.gov is the U.S. government's official web portal to all federal, state and local government web resources and services.